createdAt,value
2022-08-03T00:00:36.742Z,5.78
2022-08-03T00:03:05.505Z,8.45
2022-08-03T00:05:33.986Z,8.98
2022-08-03T00:08:02.569Z,10.07
2022-08-03T00:10:32.083Z,8.68
2022-08-03T00:13:02.584Z,14.55
2022-08-03T00:15:34.408Z,10.88
2022-08-03T00:18:10.076Z,6.28
2022-08-03T00:20:39.567Z,16.38
2022-08-03T00:23:08.809Z,8.73
2022-08-03T00:25:39.155Z,8.40
2022-08-03T00:28:09.763Z,14.50
2022-08-03T00:30:38.625Z,9.98
2022-08-03T00:33:10.286Z,9.88
2022-08-03T00:35:51.034Z,15.00
2022-08-03T00:38:19.329Z,6.72
2022-08-03T00:40:48.824Z,14.73
2022-08-03T00:43:17.304Z,6.07
2022-08-03T00:45:45.490Z,15.80
2022-08-03T00:48:32.899Z,9.07
2022-08-03T00:51:02.083Z,12.50
2022-08-03T00:53:30.360Z,8.68
2022-08-03T00:56:00.362Z,9.02
2022-08-03T00:58:28.589Z,10.70
2022-08-03T01:00:56.704Z,9.68
2022-08-03T01:03:25.012Z,8.93
2022-08-03T01:05:57.039Z,12.98
2022-08-03T01:08:47.286Z,8.80
2022-08-03T01:11:25.230Z,11.98
2022-08-03T01:14:18.094Z,8.25
2022-08-03T01:19:39.980Z,9.82
2022-08-03T01:22:25.072Z,11.18
2022-08-03T01:25:03.947Z,6.15
2022-08-03T01:27:44.511Z,11.73
2022-08-03T01:30:14.248Z,8.32
2022-08-03T01:32:53.579Z,9.07
2022-08-03T01:35:38.540Z,7.30
2022-08-03T01:38:12.618Z,6.45
2022-08-03T01:40:42.627Z,14.05
2022-08-03T01:43:13.288Z,6.50
2022-08-03T01:45:45.828Z,6.80
2022-08-03T01:48:17.190Z,5.45
2022-08-03T01:50:47.508Z,12.05
2022-08-03T01:53:18.878Z,8.88
2022-08-03T01:55:48.407Z,11.43
2022-08-03T01:58:22.778Z,8.02
2022-08-03T02:00:54.910Z,10.63
2022-08-03T02:03:28.352Z,9.57
2022-08-03T02:06:40.966Z,7.90
2022-08-03T02:08:52.454Z,12.77
2022-08-03T02:11:23.105Z,10.70
2022-08-03T02:13:52.758Z,10.20
2022-08-03T02:16:23.413Z,6.10
2022-08-03T02:18:52.704Z,7.55
2022-08-03T02:21:56.965Z,10.55
2022-08-03T02:24:12.272Z,14.52
2022-08-03T02:26:42.812Z,14.07
2022-08-03T02:29:18.424Z,10.45
2022-08-03T02:31:50.383Z,13.68
2022-08-03T02:34:22.332Z,8.10
2022-08-03T02:36:55.317Z,11.75
2022-08-03T02:39:32.039Z,11.90
2022-08-03T02:42:05.165Z,9.52
2022-08-03T02:44:37.057Z,16.05
2022-08-03T02:47:13.208Z,12.88
2022-08-03T02:49:50.584Z,10.32
2022-08-03T02:52:23.679Z,7.72
2022-08-03T02:54:56.470Z,9.33
2022-08-03T02:57:29.837Z,7.13
2022-08-03T03:00:02.678Z,12.35
2022-08-03T03:02:34.029Z,7.80
2022-08-03T03:05:55.893Z,6.72
2022-08-03T03:07:56.629Z,10.53
2022-08-03T03:10:28.698Z,8.45
2022-08-03T03:13:01.659Z,14.32
2022-08-03T03:15:32.979Z,9.63
2022-08-03T03:18:06.978Z,18.30
2022-08-03T03:20:35.883Z,13.55
2022-08-03T03:23:07.023Z,7.95
2022-08-03T03:25:38.031Z,6.82
2022-08-03T03:28:08.864Z,12.38
2022-08-03T03:30:39.898Z,9.73
2022-08-03T03:33:09.852Z,9.02
2022-08-03T03:35:39.220Z,9.63
2022-08-03T03:38:08.129Z,9.40
2022-08-03T03:40:36.724Z,9.18
2022-08-03T03:43:08.054Z,14.95
2022-08-03T03:45:36.729Z,12.52
2022-08-03T03:48:06.140Z,11.93
2022-08-03T03:50:37.625Z,12.65
2022-08-03T03:53:05.993Z,15.18
2022-08-03T03:55:37.453Z,10.55
2022-08-03T03:58:25.326Z,10.80
2022-08-03T04:00:53.928Z,7.75
2022-08-03T04:03:22.338Z,15.43
2022-08-03T04:06:09.706Z,9.45
2022-08-03T04:08:55.132Z,14.32
2022-08-03T04:11:29.073Z,8.77
2022-08-03T04:14:02.218Z,7.25
2022-08-03T04:16:33.587Z,11.95
2022-08-03T04:19:06.070Z,9.75
2022-08-03T04:21:38.474Z,18.77
2022-08-03T04:24:10.913Z,10.77
2022-08-03T04:26:42.701Z,13.63
2022-08-03T04:29:12.745Z,10.73
2022-08-03T04:31:43.084Z,9.40
2022-08-03T04:34:11.519Z,10.85
2022-08-03T04:36:49.151Z,11.52
2022-08-03T04:39:21.353Z,10.23
2022-08-03T04:42:07.535Z,9.57
2022-08-03T04:44:38.783Z,10.35
2022-08-03T04:47:07.009Z,7.90
2022-08-03T04:49:37.605Z,11.45
2022-08-03T04:52:09.932Z,8.88
2022-08-03T04:54:41.528Z,16.02
2022-08-03T04:57:09.663Z,16.02
2022-08-03T04:59:39.143Z,15.13
2022-08-03T05:02:09.573Z,9.15
2022-08-03T05:04:38.077Z,10.82
2022-08-03T05:07:12.231Z,9.55
2022-08-03T05:09:52.281Z,7.10
2022-08-03T05:12:20.539Z,9.82
2022-08-03T05:14:48.606Z,6.85
2022-08-03T05:17:16.648Z,7.53
2022-08-03T05:19:45.084Z,13.40
2022-08-03T05:22:14.603Z,17.80
2022-08-03T05:24:42.999Z,15.73
2022-08-03T05:27:17.543Z,11.02
2022-08-03T05:29:46.563Z,14.35
2022-08-03T05:32:15.132Z,12.68
2022-08-03T05:34:48.925Z,17.30
2022-08-03T05:37:21.807Z,8.57
2022-08-03T05:39:52.653Z,17.52
2022-08-03T05:42:21.899Z,15.23
2022-08-03T05:44:52.918Z,9.30
2022-08-03T05:47:28.409Z,14.18
2022-08-03T05:50:00.073Z,16.63
2022-08-03T05:52:30.333Z,15.38
2022-08-03T05:55:00.379Z,13.48
2022-08-03T05:57:30.951Z,12.80
2022-08-03T05:59:59.867Z,11.40
2022-08-03T06:02:30.572Z,13.40
2022-08-03T06:05:01.196Z,16.48
2022-08-03T06:07:32.855Z,11.25
2022-08-03T06:10:36.062Z,13.70
2022-08-03T06:12:56.925Z,11.57
2022-08-03T06:15:28.036Z,15.98
2022-08-03T06:18:02.033Z,12.30
2022-08-03T06:20:34.309Z,14.68
2022-08-03T06:23:08.172Z,19.25
2022-08-03T06:25:45.368Z,20.52
2022-08-03T06:28:42.677Z,178.30
2022-08-03T06:31:07.548Z,127.50
2022-08-03T06:34:30.602Z,20.50
2022-08-03T06:36:24.326Z,11.95
2022-08-03T06:38:56.316Z,16.80
2022-08-03T06:41:25.607Z,17.92
2022-08-03T06:44:03.229Z,21.42
2022-08-03T06:46:36.020Z,19.05
2022-08-03T06:49:07.436Z,20.80
2022-08-03T06:52:03.249Z,9.00
2022-08-03T06:54:27.753Z,17.67
2022-08-03T06:56:57.588Z,15.63
2022-08-03T07:00:07.550Z,22.50
2022-08-03T07:02:20.117Z,20.27
2022-08-03T07:04:49.109Z,18.45
2022-08-03T07:07:19.753Z,15.43
2022-08-03T07:09:56.504Z,8.93
2022-08-03T07:12:33.955Z,13.57
2022-08-03T07:15:05.700Z,14.10
2022-08-03T07:17:36.914Z,16.05
2022-08-03T07:20:08.074Z,11.75
2022-08-03T07:22:38.718Z,12.70
2022-08-03T07:25:11.602Z,19.80
2022-08-03T07:30:22.044Z,17.80
2022-08-03T07:32:50.966Z,18.02
2022-08-03T07:35:25.057Z,14.77
2022-08-03T07:37:54.469Z,11.98
2022-08-03T07:40:25.122Z,16.00
2022-08-03T07:42:59.281Z,11.13
2022-08-03T07:45:27.708Z,17.30
2022-08-03T07:47:55.805Z,12.68
2022-08-03T07:50:24.427Z,14.98
2022-08-03T07:52:53.739Z,22.80
2022-08-03T07:55:23.361Z,9.02
2022-08-03T07:58:03.029Z,19.88
2022-08-03T08:00:31.568Z,17.75
2022-08-03T08:02:59.650Z,13.07
2022-08-03T08:05:28.334Z,15.27
2022-08-03T08:07:56.445Z,12.25
2022-08-03T08:10:24.672Z,12.18
2022-08-03T08:12:53.049Z,16.48
2022-08-03T08:15:22.740Z,18.40
2022-08-03T08:17:53.657Z,17.60
2022-08-03T08:20:30.843Z,17.35
2022-08-03T08:23:01.170Z,12.25
2022-08-03T08:25:30.687Z,15.48
2022-08-03T08:28:29.785Z,14.13
2022-08-03T08:30:51.460Z,15.23
2022-08-03T08:33:23.555Z,23.60
2022-08-03T08:35:54.447Z,15.52
2022-08-03T08:38:25.672Z,13.52
2022-08-03T08:40:57.888Z,9.57
2022-08-03T08:43:31.256Z,11.20
2022-08-03T08:46:01.760Z,15.73
2022-08-03T08:48:33.829Z,16.40
2022-08-03T08:51:06.118Z,12.68
2022-08-03T08:53:41.176Z,10.23
2022-08-03T08:56:12.975Z,29.10
2022-08-03T08:58:47.154Z,15.70
2022-08-03T09:01:20.560Z,19.50
2022-08-03T09:03:51.034Z,12.20
2022-08-03T09:06:20.588Z,24.00
2022-08-03T09:08:51.424Z,26.60
2022-08-03T09:11:57.760Z,17.65
2022-08-03T09:14:36.961Z,23.42
2022-08-03T09:17:08.307Z,11.52
2022-08-03T09:20:09.426Z,24.80
2022-08-03T09:22:53.240Z,16.35
2022-08-03T09:25:27.334Z,12.02
2022-08-03T09:27:58.457Z,22.92
2022-08-03T09:30:34.715Z,16.45
2022-08-03T09:33:08.131Z,12.02
2022-08-03T09:35:58.268Z,12.35
2022-08-03T09:38:30.452Z,12.57
2022-08-03T09:41:00.777Z,14.43
2022-08-03T09:43:48.199Z,11.20
2022-08-03T09:46:20.297Z,19.55
2022-08-03T09:48:54.270Z,13.38
2022-08-03T09:52:28.800Z,16.40
2022-08-03T09:54:30.878Z,18.10
2022-08-03T09:57:02.318Z,10.02
2022-08-03T09:59:34.500Z,13.07
2022-08-03T10:02:05.664Z,13.10
2022-08-03T10:04:49.432Z,11.50
2022-08-03T10:07:21.314Z,13.82
2022-08-03T10:10:31.200Z,14.50
2022-08-03T10:12:55.683Z,16.65
2022-08-03T10:16:25.185Z,19.60
2022-08-03T10:18:18.953Z,11.55
2022-08-03T10:20:54.623Z,12.18
2022-08-03T10:23:26.212Z,16.10
2022-08-03T10:26:04.709Z,14.85
2022-08-03T10:28:44.815Z,17.17
2022-08-03T10:31:17.186Z,10.10
2022-08-03T10:33:53.190Z,16.08
2022-08-03T10:36:25.029Z,14.75
2022-08-03T10:38:55.375Z,13.48
2022-08-03T10:41:27.913Z,12.73
2022-08-03T10:44:03.306Z,11.67
2022-08-03T10:46:32.336Z,17.63
2022-08-03T10:49:02.808Z,21.50
2022-08-03T10:51:34.399Z,11.55
2022-08-03T10:54:04.574Z,14.43
2022-08-03T10:57:10.966Z,14.80
2022-08-03T11:00:08.093Z,14.07
2022-08-03T11:03:04.847Z,15.10
2022-08-03T11:05:37.397Z,17.65
2022-08-03T11:08:38.150Z,19.23
2022-08-03T11:11:31.945Z,21.20
2022-08-03T11:16:35.616Z,16.60
2022-08-03T11:19:07.768Z,15.10
2022-08-03T11:21:56.862Z,15.70
2022-08-03T11:25:05.579Z,17.45
2022-08-03T11:27:38.182Z,16.33
2022-08-03T11:30:12.385Z,20.10
2022-08-03T11:33:01.864Z,17.35
2022-08-03T11:35:36.787Z,27.05
2022-08-03T11:38:13.150Z,20.50
2022-08-03T11:40:49.538Z,18.95
2022-08-03T11:43:49.391Z,17.55
2022-08-03T11:46:29.798Z,26.70
2022-08-03T11:49:10.991Z,15.95
2022-08-03T11:51:42.283Z,16.20
2022-08-03T11:54:13.629Z,17.10
2022-08-03T11:56:51.473Z,26.60
2022-08-03T11:59:34.326Z,14.90
2022-08-03T12:02:09.564Z,26.57
2022-08-03T12:04:53.229Z,29.55
2022-08-03T12:07:24.411Z,19.95
2022-08-03T12:10:16.793Z,18.10
2022-08-03T12:12:48.173Z,19.10
2022-08-03T12:15:18.171Z,25.13
2022-08-03T12:17:49.774Z,12.07
2022-08-03T12:20:31.284Z,22.98
2022-08-03T12:23:07.758Z,21.20
2022-08-03T12:25:39.589Z,20.27
2022-08-03T12:28:36.479Z,21.88
2022-08-03T12:31:12.405Z,24.30
2022-08-03T12:33:59.161Z,27.35
2022-08-03T12:36:28.554Z,18.45
2022-08-03T12:38:57.917Z,32.58
2022-08-03T12:41:31.025Z,16.90
2022-08-03T12:46:32.955Z,20.48
2022-08-03T12:49:03.553Z,23.77
2022-08-03T12:51:34.350Z,25.13
2022-08-03T12:54:03.018Z,14.48
2022-08-03T12:56:31.199Z,17.27
2022-08-03T12:59:00.509Z,19.50
2022-08-03T13:01:37.960Z,22.73
2022-08-03T13:04:33.207Z,28.05
2022-08-03T13:07:03.614Z,23.92
2022-08-03T13:09:41.752Z,18.48
2022-08-03T13:12:11.817Z,21.63
2022-08-03T13:14:41.624Z,25.17
2022-08-03T13:17:09.887Z,30.98
2022-08-03T13:19:38.628Z,22.92
2022-08-03T13:22:14.447Z,20.92
2022-08-03T13:24:43.619Z,19.77
2022-08-03T13:28:12.469Z,17.27
2022-08-03T13:30:01.914Z,16.17
2022-08-03T13:32:29.949Z,18.98
2022-08-03T13:35:00.984Z,17.42
2022-08-03T13:40:04.826Z,12.38
2022-08-03T13:42:35.856Z,32.00
2022-08-03T13:45:06.708Z,17.60
2022-08-03T13:47:34.878Z,20.67
2022-08-03T13:50:03.337Z,16.80
2022-08-03T13:52:33.706Z,16.52
2022-08-03T13:55:02.366Z,19.10
2022-08-03T13:58:04.031Z,12.82
2022-08-03T14:00:27.226Z,14.88
2022-08-03T14:03:02.809Z,14.55
2022-08-03T14:05:34.077Z,17.45
2022-08-03T14:08:04.737Z,18.35
2022-08-03T14:10:34.736Z,15.65
2022-08-03T14:13:02.972Z,13.90
2022-08-03T14:15:37.879Z,13.75
2022-08-03T14:18:15.702Z,13.85
2022-08-03T14:20:56.793Z,17.17
2022-08-03T14:23:26.422Z,12.52
2022-08-03T14:25:55.490Z,20.92
2022-08-03T14:28:24.525Z,13.85
2022-08-03T14:30:56.056Z,18.73
2022-08-03T14:33:24.689Z,17.63
2022-08-03T14:35:53.308Z,13.85
2022-08-03T14:38:22.324Z,18.75
2022-08-03T14:40:51.628Z,13.65
2022-08-03T14:43:21.327Z,14.85
2022-08-03T14:45:52.197Z,11.75
2022-08-03T14:50:30.491Z,22.90
2022-08-03T14:51:10.268Z,21.75
2022-08-03T14:53:38.231Z,10.48
2022-08-03T14:56:10.366Z,15.15
2022-08-03T14:58:39.367Z,16.30
2022-08-03T15:02:03.057Z,15.85
2022-08-03T15:03:58.112Z,15.02
2022-08-03T15:06:26.085Z,10.50
2022-08-03T15:09:21.515Z,15.05
2022-08-03T15:11:44.854Z,11.98
2022-08-03T15:14:15.545Z,10.60
2022-08-03T15:16:46.192Z,15.40
2022-08-03T15:20:01.173Z,13.77
2022-08-03T15:22:09.082Z,9.55
2022-08-03T15:24:38.602Z,15.00
2022-08-03T15:27:10.366Z,10.75
2022-08-03T15:30:07.758Z,13.00
2022-08-03T15:32:33.999Z,12.80
2022-08-03T15:35:05.271Z,12.77
2022-08-03T15:37:33.361Z,9.35
2022-08-03T15:40:05.456Z,16.60
2022-08-03T15:42:34.563Z,11.43
2022-08-03T15:45:02.990Z,17.45
2022-08-03T15:47:31.210Z,10.95
2022-08-03T15:49:59.141Z,10.57
2022-08-03T15:52:28.873Z,9.05
2022-08-03T15:54:56.842Z,8.32
2022-08-03T15:57:24.924Z,11.32
2022-08-03T15:59:53.155Z,15.88
2022-08-03T16:02:21.425Z,10.13
2022-08-03T16:04:49.359Z,10.77
2022-08-03T16:07:37.576Z,7.65
2022-08-03T16:10:08.350Z,10.20
2022-08-03T16:12:39.228Z,7.53
2022-08-03T16:15:12.251Z,14.93
2022-08-03T16:20:31.352Z,7.72
2022-08-03T16:23:11.390Z,7.40
2022-08-03T16:25:49.176Z,10.88
2022-08-03T16:28:21.936Z,12.90
2022-08-03T16:30:51.265Z,14.35
2022-08-03T16:33:21.671Z,11.30
2022-08-03T16:35:54.132Z,8.25
2022-08-03T16:38:24.942Z,13.85
2022-08-03T16:40:56.388Z,11.10
2022-08-03T16:43:27.752Z,13.38
2022-08-03T16:45:57.533Z,14.40
2022-08-03T16:48:29.080Z,10.30
2022-08-03T16:50:58.996Z,8.63
2022-08-03T16:53:33.732Z,9.05
2022-08-03T16:56:25.178Z,13.80
2022-08-03T16:58:57.168Z,13.45
2022-08-03T17:01:35.671Z,13.85
2022-08-03T17:04:12.110Z,6.75
2022-08-03T17:06:46.411Z,11.60
2022-08-03T17:09:20.768Z,10.32
2022-08-03T17:11:52.479Z,14.52
2022-08-03T17:14:29.327Z,14.32
2022-08-03T17:17:01.588Z,10.73
2022-08-03T17:19:33.096Z,12.63
2022-08-03T17:22:10.607Z,9.02
2022-08-03T17:24:42.577Z,19.80
2022-08-03T17:28:41.875Z,9.90
2022-08-03T17:30:13.505Z,12.80
2022-08-03T17:32:57.119Z,10.23
2022-08-03T17:35:36.709Z,11.50
2022-08-03T17:38:12.078Z,9.68
2022-08-03T17:40:50.220Z,7.93
2022-08-03T17:44:13.511Z,7.60
2022-08-03T17:46:16.903Z,15.05
2022-08-03T17:48:50.612Z,9.68
2022-08-03T17:51:29.110Z,14.18
2022-08-03T17:54:18.336Z,12.57
2022-08-03T17:56:58.921Z,16.42
2022-08-03T18:00:02.762Z,14.27
2022-08-03T18:03:03.838Z,15.98
2022-08-03T18:06:11.533Z,15.25
2022-08-03T18:11:03.363Z,17.65
2022-08-03T18:13:45.275Z,18.05
2022-08-03T18:16:35.659Z,12.40
2022-08-03T18:19:14.267Z,13.68
2022-08-03T18:22:02.766Z,18.38
2022-08-03T18:24:34.732Z,11.65
2022-08-03T18:27:12.975Z,11.25
2022-08-03T18:32:19.682Z,18.75
2022-08-03T18:34:53.489Z,19.02
2022-08-03T18:37:25.431Z,13.10
2022-08-03T18:39:57.949Z,11.13
2022-08-03T18:42:27.064Z,20.38
2022-08-03T18:44:56.743Z,19.35
2022-08-03T18:47:50.654Z,15.15
2022-08-03T18:50:29.472Z,20.75
2022-08-03T18:53:19.452Z,70.07
2022-08-03T18:56:02.309Z,83.30
2022-08-03T18:58:38.775Z,37.38
2022-08-03T19:01:59.875Z,37.80
2022-08-03T19:04:12.625Z,38.05
2022-08-03T19:06:45.011Z,33.08
2022-08-03T19:09:20.726Z,35.60
2022-08-03T19:12:13.303Z,26.65
2022-08-03T19:14:48.298Z,30.27
2022-08-03T19:17:21.377Z,29.67
2022-08-03T19:19:52.935Z,22.02
2022-08-03T19:22:22.368Z,22.80
2022-08-03T19:24:55.190Z,20.33
2022-08-03T19:27:26.921Z,19.00
2022-08-03T19:30:01.236Z,27.55
2022-08-03T19:32:33.593Z,29.33
2022-08-03T19:35:05.224Z,22.77
2022-08-03T19:37:42.098Z,22.42
2022-08-03T19:40:12.443Z,26.17
2022-08-03T19:42:46.393Z,24.00
2022-08-03T19:45:22.330Z,24.40
2022-08-03T19:48:14.366Z,18.63
2022-08-03T19:50:44.893Z,36.97
2022-08-03T19:53:14.129Z,26.35
2022-08-03T19:55:48.801Z,28.92
2022-08-03T19:58:28.760Z,26.50
2022-08-03T20:00:57.627Z,33.72
2022-08-03T20:03:28.012Z,26.17
2022-08-03T20:06:17.040Z,31.80
2022-08-03T20:08:45.159Z,29.10
2022-08-03T20:11:16.908Z,19.80
2022-08-03T20:13:48.261Z,35.72
2022-08-03T20:16:16.766Z,38.58
2022-08-03T20:18:45.584Z,39.38
2022-08-03T20:21:18.920Z,41.92
2022-08-03T20:24:01.789Z,52.60
2022-08-03T20:26:33.556Z,54.50
2022-08-03T20:29:09.107Z,54.33
2022-08-03T20:31:38.622Z,66.95
2022-08-03T20:34:09.123Z,59.15
2022-08-03T20:36:38.675Z,52.88
2022-08-03T20:39:07.705Z,28.70
2022-08-03T20:41:37.109Z,43.67
2022-08-03T20:44:06.826Z,38.53
2022-08-03T20:46:50.231Z,24.55
2022-08-03T20:49:23.861Z,21.23
2022-08-03T20:51:53.945Z,30.02
2022-08-03T20:54:30.664Z,37.15
2022-08-03T20:57:03.577Z,22.90
2022-08-03T20:59:46.734Z,20.13
2022-08-03T21:02:19.870Z,18.20
2022-08-03T21:04:57.475Z,20.27
2022-08-03T21:08:05.368Z,23.08
2022-08-03T21:10:18.101Z,26.45
2022-08-03T21:12:52.724Z,18.63
2022-08-03T21:16:06.547Z,22.33
2022-08-03T21:18:15.580Z,15.60
2022-08-03T21:20:47.346Z,20.45
2022-08-03T21:23:35.127Z,14.38
2022-08-03T21:26:09.206Z,14.57
2022-08-03T21:28:39.115Z,18.33
2022-08-03T21:31:08.542Z,16.33
2022-08-03T21:33:37.049Z,20.73
2022-08-03T21:36:07.861Z,15.23
2022-08-03T21:38:55.723Z,32.53
2022-08-03T21:41:29.018Z,25.33
2022-08-03T21:44:00.255Z,17.58
2022-08-03T21:46:34.514Z,22.25
2022-08-03T21:50:05.026Z,15.70
2022-08-03T21:52:01.214Z,18.60
2022-08-03T21:54:39.588Z,20.77
2022-08-03T21:57:17.863Z,10.65
2022-08-03T21:59:57.101Z,12.52
2022-08-03T22:02:31.531Z,14.55
2022-08-03T22:05:04.899Z,21.38
2022-08-03T22:07:39.286Z,13.35
2022-08-03T22:10:12.664Z,18.88
2022-08-03T22:12:46.856Z,12.50
2022-08-03T22:15:16.343Z,14.68
2022-08-03T22:17:54.748Z,14.23
2022-08-03T22:20:29.348Z,11.57
2022-08-03T22:23:09.872Z,13.95
2022-08-03T22:25:42.927Z,9.88
2022-08-03T22:28:16.705Z,13.65
2022-08-03T22:30:47.774Z,10.27
2022-08-03T22:33:19.104Z,12.93
2022-08-03T22:35:52.574Z,16.88
2022-08-03T22:38:22.389Z,13.13
2022-08-03T22:40:53.464Z,14.05
2022-08-03T22:43:26.310Z,12.70
2022-08-03T22:46:09.160Z,15.07
2022-08-03T22:48:42.833Z,12.38
2022-08-03T22:51:13.939Z,8.82
2022-08-03T22:53:47.000Z,18.90
2022-08-03T22:56:20.829Z,13.23
2022-08-03T22:58:53.100Z,10.30
2022-08-03T23:01:27.037Z,7.88
2022-08-03T23:04:06.057Z,10.77
2022-08-03T23:06:39.849Z,8.27
2022-08-03T23:09:12.159Z,9.63
2022-08-03T23:11:47.957Z,7.95
2022-08-03T23:14:21.798Z,14.45
2022-08-03T23:16:58.221Z,9.55
2022-08-03T23:19:30.220Z,11.35
2022-08-03T23:22:05.866Z,9.77
2022-08-03T23:24:38.597Z,18.20
2022-08-03T23:27:14.119Z,8.25
2022-08-03T23:29:46.993Z,11.68
2022-08-03T23:32:19.128Z,11.43
2022-08-03T23:35:09.559Z,7.63
2022-08-03T23:38:21.634Z,12.23
2022-08-03T23:40:31.069Z,12.65
2022-08-03T23:43:03.081Z,8.55
2022-08-03T23:45:35.722Z,7.38
2022-08-03T23:48:03.877Z,10.88
2022-08-03T23:50:42.462Z,11.52
2022-08-03T23:53:17.980Z,10.82
2022-08-03T23:56:02.042Z,13.18
2022-08-03T23:58:44.986Z,12.05
